createdAt,value
2018-10-02T00:00:37.901Z,99.99
2018-10-02T00:01:38.143Z,99.99
2018-10-02T00:02:38.342Z,99.99
2018-10-02T00:03:37.612Z,99.99
2018-10-02T00:04:37.740Z,99.99
2018-10-02T00:05:37.925Z,99.99
2018-10-02T00:06:38.201Z,99.99
2018-10-02T00:07:38.269Z,99.99
2018-10-02T00:08:37.334Z,99.99
2018-10-02T00:10:19.174Z,99.99
2018-10-02T00:12:03.179Z,99.99
2018-10-02T00:13:03.290Z,99.99
2018-10-02T00:14:24.474Z,99.99
2018-10-02T00:15:25.505Z,99.99
2018-10-02T00:16:24.795Z,99.91
2018-10-02T00:17:24.978Z,99.82
2018-10-02T00:18:45.884Z,99.63
2018-10-02T00:20:07.848Z,99.53
2018-10-02T00:21:08.108Z,99.44
2018-10-02T00:22:29.129Z,99.34
2018-10-02T00:23:29.167Z,99.15
2018-10-02T00:24:29.559Z,99.06
2018-10-02T00:25:50.630Z,98.87
2018-10-02T00:26:50.635Z,98.87
2018-10-02T00:27:50.854Z,98.77
2018-10-02T00:28:50.924Z,98.68
2018-10-02T00:29:51.180Z,98.68
2018-10-02T00:30:51.405Z,98.58
2018-10-02T00:31:51.548Z,98.49
2018-10-02T00:32:50.690Z,98.49
2018-10-02T00:33:50.897Z,98.49
2018-10-02T00:34:50.878Z,98.39
2018-10-02T00:35:50.973Z,98.30
2018-10-02T00:36:50.975Z,98.11
2018-10-02T00:37:51.122Z,98.11
2018-10-02T00:38:51.265Z,98.02
2018-10-02T00:40:35.236Z,97.83
2018-10-02T00:41:56.213Z,97.73
2018-10-02T00:42:56.319Z,97.64
2018-10-02T00:43:56.477Z,97.64
2018-10-02T00:44:56.521Z,97.54
2018-10-02T00:45:56.587Z,97.45
2018-10-02T00:47:17.547Z,97.35
2018-10-02T00:48:17.699Z,97.35
2018-10-02T00:49:17.904Z,97.26
2018-10-02T00:50:18.034Z,97.16
2018-10-02T00:51:18.188Z,97.07
2018-10-02T00:52:18.189Z,97.07
2018-10-02T00:53:18.331Z,96.97
2018-10-02T00:54:18.430Z,96.87
2018-10-02T00:55:17.627Z,96.78
2018-10-02T00:56:17.715Z,96.69
2018-10-02T00:57:17.857Z,96.59
2018-10-02T00:58:17.940Z,96.50
2018-10-02T00:59:18.070Z,96.41
2018-10-02T01:00:17.986Z,96.31
2018-10-02T01:01:18.299Z,96.22
2018-10-02T01:02:17.528Z,96.03
2018-10-02T01:03:17.452Z,96.03
2018-10-02T01:04:17.615Z,95.84
2018-10-02T01:05:40.525Z,95.65
2018-10-02T01:07:01.593Z,95.55
2018-10-02T01:08:01.651Z,95.36
2018-10-02T01:09:02.457Z,95.26
2018-10-02T01:10:01.568Z,95.17
2018-10-02T01:11:47.182Z,95.07
2018-10-02T01:12:47.458Z,94.98
2018-10-02T01:13:47.464Z,94.89
2018-10-02T01:14:47.507Z,94.89
2018-10-02T01:15:47.733Z,94.79
2018-10-02T01:16:50.701Z,94.79
2018-10-02T01:17:47.791Z,94.79
2018-10-02T01:18:48.006Z,94.79
2018-10-02T01:19:48.046Z,94.79
2018-10-02T01:20:48.004Z,94.79
2018-10-02T01:21:48.140Z,94.79
2018-10-02T01:22:48.163Z,94.79
2018-10-02T01:23:48.152Z,94.79
2018-10-02T01:24:47.172Z,94.89
2018-10-02T01:25:47.286Z,94.98
2018-10-02T01:26:47.220Z,94.98
2018-10-02T01:27:47.339Z,95.07
2018-10-02T01:28:47.361Z,95.22
2018-10-02T01:29:47.323Z,95.26
2018-10-02T01:30:47.426Z,95.31
2018-10-02T01:31:47.592Z,95.41
2018-10-02T01:32:47.638Z,95.50
2018-10-02T01:34:08.691Z,95.60
2018-10-02T01:35:08.780Z,95.60
2018-10-02T01:36:08.836Z,95.60
2018-10-02T01:37:08.899Z,95.60
2018-10-02T01:38:09.020Z,95.69
2018-10-02T01:39:30.028Z,95.79
2018-10-02T01:40:31.116Z,95.79
2018-10-02T01:41:30.226Z,95.88
2018-10-02T01:42:30.227Z,95.88
2018-10-02T01:43:30.350Z,95.88
2018-10-02T01:44:30.585Z,95.98
2018-10-02T01:45:30.768Z,95.98
2018-10-02T01:46:30.875Z,96.08
2018-10-02T01:47:30.775Z,96.08
2018-10-02T01:48:51.569Z,96.17
2018-10-02T01:49:51.403Z,96.26
2018-10-02T01:50:51.566Z,96.36
2018-10-02T01:51:51.567Z,96.45
2018-10-02T01:52:51.530Z,96.45
2018-10-02T01:53:51.645Z,96.55
2018-10-02T01:54:51.804Z,96.64
2018-10-02T01:56:14.793Z,96.64
2018-10-02T01:57:14.820Z,96.73
2018-10-02T01:58:14.892Z,96.83
2018-10-02T01:59:14.931Z,96.83
2018-10-02T02:00:15.061Z,96.83
2018-10-02T02:01:15.244Z,96.83
2018-10-02T02:02:15.246Z,96.73
2018-10-02T02:03:15.406Z,96.73
2018-10-02T02:04:15.545Z,96.69
2018-10-02T02:05:15.725Z,96.59
2018-10-02T02:06:14.958Z,96.59
2018-10-02T02:07:15.064Z,96.55
2018-10-02T02:08:15.139Z,96.45
2018-10-02T02:09:15.187Z,96.45
2018-10-02T02:10:15.201Z,96.36
2018-10-02T02:11:15.463Z,96.36
2018-10-02T02:12:15.513Z,96.36
2018-10-02T02:13:15.438Z,96.26
2018-10-02T02:14:15.312Z,96.26
2018-10-02T02:15:15.290Z,96.26
2018-10-02T02:16:15.411Z,96.17
2018-10-02T02:17:15.474Z,96.08
2018-10-02T02:18:15.509Z,95.98
2018-10-02T02:19:15.415Z,95.98
2018-10-02T02:20:15.363Z,95.88
2018-10-02T02:21:15.622Z,95.88
2018-10-02T02:23:17.389Z,95.79
2018-10-02T02:24:17.564Z,95.79
2018-10-02T02:25:17.798Z,95.79
2018-10-02T02:26:18.065Z,95.79
2018-10-02T02:27:18.243Z,95.79
2018-10-02T02:28:18.284Z,95.79
2018-10-02T02:29:17.464Z,95.79
2018-10-02T02:30:17.543Z,95.88
2018-10-02T02:31:17.732Z,95.88
2018-10-02T02:32:17.931Z,95.88
2018-10-02T02:33:18.250Z,95.88
2018-10-02T02:34:17.484Z,95.98
2018-10-02T02:35:17.395Z,96.08
2018-10-02T02:36:17.629Z,96.08
2018-10-02T02:37:17.706Z,96.08
2018-10-02T02:38:30.161Z,96.17
2018-10-02T02:39:21.541Z,96.26
2018-10-02T02:40:17.640Z,96.26
2018-10-02T02:41:17.564Z,96.36
2018-10-02T02:42:17.682Z,96.36
2018-10-02T02:43:17.991Z,96.36
2018-10-02T02:44:18.104Z,96.36
2018-10-02T02:45:38.968Z,96.45
2018-10-02T02:46:39.213Z,96.45
2018-10-02T02:47:39.280Z,96.55
2018-10-02T02:49:00.206Z,96.55
2018-10-02T02:50:00.355Z,96.64
2018-10-02T02:51:00.515Z,96.73
2018-10-02T02:52:00.660Z,96.83
2018-10-02T02:53:00.671Z,96.83
2018-10-02T02:54:00.969Z,96.92
2018-10-02T02:55:01.248Z,97.12
2018-10-02T02:56:00.341Z,97.12
2018-10-02T02:57:00.532Z,97.21
2018-10-02T02:58:00.502Z,97.21
2018-10-02T02:59:00.537Z,97.21
2018-10-02T03:00:01.160Z,97.21
2018-10-02T03:01:21.662Z,97.21
2018-10-02T03:02:42.589Z,97.21
2018-10-02T03:03:42.687Z,97.31
2018-10-02T03:04:42.881Z,97.31
2018-10-02T03:05:42.999Z,97.36
2018-10-02T03:06:43.209Z,97.45
2018-10-02T03:07:43.329Z,97.55
2018-10-02T03:08:43.530Z,97.64
2018-10-02T03:09:42.776Z,97.83
2018-10-02T03:10:42.923Z,97.83
2018-10-02T03:11:43.003Z,97.92
2018-10-02T03:12:43.070Z,97.92
2018-10-02T03:14:03.966Z,97.92
2018-10-02T03:15:04.210Z,97.92
2018-10-02T03:16:04.434Z,97.83
2018-10-02T03:17:04.728Z,97.83
2018-10-02T03:18:03.883Z,97.92
2018-10-02T03:19:03.998Z,98.02
2018-10-02T03:20:04.170Z,98.02
2018-10-02T03:21:04.432Z,98.11
2018-10-02T03:22:04.512Z,98.02
2018-10-02T03:23:05.926Z,98.11
2018-10-02T03:24:04.162Z,98.21
2018-10-02T03:25:04.160Z,98.30
2018-10-02T03:26:04.232Z,98.40
2018-10-02T03:27:04.550Z,98.49
2018-10-02T03:28:04.667Z,98.68
2018-10-02T03:29:04.011Z,98.87
2018-10-02T03:30:05.369Z,99.06
2018-10-02T03:31:04.670Z,99.16
2018-10-02T03:32:07.262Z,99.26
2018-10-02T03:33:04.981Z,99.44
2018-10-02T03:34:04.137Z,99.54
2018-10-02T03:35:45.810Z,99.73
2018-10-02T03:36:45.996Z,99.73
2018-10-02T03:37:46.100Z,99.82
2018-10-02T03:38:46.328Z,99.91
2018-10-02T03:39:46.450Z,99.99
2018-10-02T03:40:46.518Z,99.99
2018-10-02T03:41:46.465Z,99.99
2018-10-02T03:42:46.661Z,99.99
2018-10-02T03:44:06.707Z,99.99
2018-10-02T03:45:07.669Z,99.99
2018-10-02T03:46:06.872Z,99.99
2018-10-02T03:47:06.978Z,99.99
2018-10-02T03:48:07.692Z,99.99
2018-10-02T03:49:06.704Z,99.99
2018-10-02T03:50:27.897Z,99.99
2018-10-02T03:51:28.070Z,99.99
2018-10-02T03:52:29.929Z,99.99
2018-10-02T03:53:28.104Z,99.99
2018-10-02T03:54:49.027Z,99.99
2018-10-02T03:56:30.630Z,99.99
2018-10-02T03:57:51.552Z,99.99
2018-10-02T03:58:52.531Z,99.99
2018-10-02T03:59:51.621Z,99.99
2018-10-02T04:00:51.741Z,99.99
2018-10-02T04:01:52.095Z,99.99
2018-10-02T04:02:52.378Z,99.99
2018-10-02T04:03:52.421Z,99.99
2018-10-02T04:04:51.690Z,99.99
2018-10-02T04:05:51.676Z,99.99
2018-10-02T04:06:52.002Z,99.99
2018-10-02T04:08:13.409Z,99.99
2018-10-02T04:09:34.660Z,99.99
2018-10-02T04:10:34.780Z,99.99
2018-10-02T04:11:55.629Z,99.99
2018-10-02T04:13:16.876Z,99.99
2018-10-02T04:14:17.150Z,99.99
2018-10-02T04:15:17.257Z,99.99
2018-10-02T04:16:17.333Z,99.99
2018-10-02T04:17:17.441Z,99.99
2018-10-02T04:18:43.402Z,99.99
2018-10-02T04:19:41.678Z,99.99
2018-10-02T04:20:43.743Z,99.99
2018-10-02T04:21:41.897Z,99.99
2018-10-02T04:22:42.441Z,99.99
2018-10-02T04:23:43.123Z,99.99
2018-10-02T04:25:02.671Z,99.99
2018-10-02T04:26:23.725Z,99.99
2018-10-02T04:27:23.729Z,99.99
2018-10-02T04:28:24.847Z,99.99
2018-10-02T04:29:24.654Z,99.99
2018-10-02T04:30:24.591Z,99.99
2018-10-02T04:31:48.504Z,99.99
2018-10-02T04:32:50.732Z,99.99
2018-10-02T04:33:47.086Z,99.99
2018-10-02T04:34:46.234Z,99.99
2018-10-02T04:35:46.418Z,99.99
2018-10-02T04:37:07.107Z,99.99
2018-10-02T04:38:28.045Z,99.99
2018-10-02T04:39:28.935Z,99.99
2018-10-02T04:40:28.259Z,99.99
2018-10-02T04:41:29.210Z,99.99
2018-10-02T04:42:28.417Z,99.99
2018-10-02T04:43:28.553Z,99.99
2018-10-02T04:44:29.332Z,99.99
2018-10-02T04:45:28.667Z,99.99
2018-10-02T04:46:28.776Z,99.99
2018-10-02T04:47:29.102Z,99.99
2018-10-02T04:48:30.042Z,99.99
2018-10-02T04:49:28.908Z,99.99
2018-10-02T04:50:28.426Z,99.99
2018-10-02T04:51:28.501Z,99.99
2018-10-02T04:52:29.481Z,99.99
2018-10-02T04:53:28.617Z,99.99
2018-10-02T04:54:28.872Z,99.99
2018-10-02T04:55:28.041Z,99.99
2018-10-02T04:56:28.359Z,99.99
2018-10-02T04:57:28.772Z,99.99
2018-10-02T04:58:28.982Z,99.99
2018-10-02T04:59:49.270Z,99.99
2018-10-02T05:00:50.275Z,99.99
2018-10-02T05:01:49.580Z,99.99
2018-10-02T05:03:14.379Z,99.99
2018-10-02T05:04:36.146Z,99.99
2018-10-02T05:05:36.379Z,99.99
2018-10-02T05:06:36.685Z,99.87
2018-10-02T05:07:36.120Z,99.49
2018-10-02T05:08:36.533Z,99.21
2018-10-02T05:09:35.996Z,98.92
2018-10-02T05:10:36.534Z,98.45
2018-10-02T05:11:36.151Z,98.26
2018-10-02T05:12:36.479Z,97.78
2018-10-02T05:13:36.060Z,97.22
2018-10-02T05:14:36.931Z,96.93
2018-10-02T05:15:36.170Z,96.45
2018-10-02T05:16:36.522Z,96.08
2018-10-02T05:17:36.878Z,95.60
2018-10-02T05:18:58.299Z,95.22
2018-10-02T05:19:59.484Z,94.65
2018-10-02T05:20:58.849Z,94.18
2018-10-02T05:21:59.211Z,93.80
2018-10-02T05:22:58.492Z,93.60
2018-10-02T05:23:58.994Z,93.32
2018-10-02T05:24:58.301Z,93.04
2018-10-02T05:26:19.750Z,92.56
2018-10-02T05:27:20.192Z,92.18
2018-10-02T05:28:20.483Z,91.89
2018-10-02T05:29:19.969Z,91.52
2018-10-02T05:30:20.193Z,91.04
2018-10-02T05:31:20.866Z,90.76
2018-10-02T05:32:20.581Z,90.38
2018-10-02T05:33:20.059Z,90.00
2018-10-02T05:34:20.243Z,89.53
2018-10-02T05:35:20.977Z,89.24
2018-10-02T05:36:20.768Z,88.86
2018-10-02T05:37:20.432Z,88.48
2018-10-02T05:38:19.896Z,88.10
2018-10-02T05:39:20.422Z,87.72
2018-10-02T05:40:19.765Z,87.43
2018-10-02T05:42:02.637Z,86.87
2018-10-02T05:43:03.031Z,86.58
2018-10-02T05:44:03.366Z,86.20
2018-10-02T05:45:02.968Z,85.91
2018-10-02T05:46:03.428Z,85.63
2018-10-02T05:47:03.040Z,85.35
2018-10-02T05:48:27.135Z,84.87
2018-10-02T05:49:50.185Z,84.49
2018-10-02T05:50:50.551Z,84.30
2018-10-02T05:51:50.981Z,84.01
2018-10-02T05:52:50.512Z,83.73
2018-10-02T05:53:50.805Z,83.54
2018-10-02T05:54:50.205Z,83.26
2018-10-02T05:55:50.728Z,83.07
2018-10-02T05:56:50.637Z,82.88
2018-10-02T05:58:11.105Z,82.59
2018-10-02T05:59:11.738Z,82.40
2018-10-02T06:00:11.497Z,82.21
2018-10-02T06:01:12.115Z,81.93
2018-10-02T06:02:11.705Z,81.74
2018-10-02T06:03:11.469Z,81.55
2018-10-02T06:04:11.809Z,81.36
2018-10-02T06:05:53.876Z,81.07
2018-10-02T06:06:54.368Z,80.98
2018-10-02T06:07:54.949Z,80.79
2018-10-02T06:08:54.306Z,80.60
2018-10-02T06:09:54.756Z,80.51
2018-10-02T06:11:15.439Z,80.32
2018-10-02T06:12:15.681Z,80.13
2018-10-02T06:13:16.073Z,80.03
2018-10-02T06:14:15.510Z,79.84
2018-10-02T06:15:16.015Z,79.74
2018-10-02T06:16:15.476Z,79.65
2018-10-02T06:17:16.218Z,79.46
2018-10-02T06:18:15.678Z,79.36
2018-10-02T06:19:16.229Z,79.27
2018-10-02T06:20:15.625Z,79.08
2018-10-02T06:21:16.033Z,78.99
2018-10-02T06:22:15.533Z,78.89
2018-10-02T06:23:37.572Z,78.70
2018-10-02T06:24:38.143Z,78.61
2018-10-02T06:25:37.631Z,78.51
2018-10-02T06:26:38.091Z,78.42
2018-10-02T06:27:58.638Z,78.23
2018-10-02T06:28:59.238Z,78.03
2018-10-02T06:30:42.366Z,77.84
2018-10-02T06:31:42.868Z,77.75
2018-10-02T06:32:43.353Z,77.66
2018-10-02T06:34:04.684Z,77.47
2018-10-02T06:35:05.042Z,77.37
2018-10-02T06:36:04.456Z,77.28
2018-10-02T06:37:04.775Z,77.18
2018-10-02T06:38:04.385Z,77.09
2018-10-02T06:39:26.279Z,76.99
2018-10-02T06:40:26.832Z,76.90
2018-10-02T06:41:26.337Z,76.80
2018-10-02T06:42:27.027Z,76.71
2018-10-02T06:43:26.543Z,76.61
2018-10-02T06:44:26.904Z,76.52
2018-10-02T06:45:26.336Z,76.42
2018-10-02T06:46:26.739Z,76.32
2018-10-02T06:47:26.134Z,76.23
2018-10-02T06:48:26.788Z,76.23
2018-10-02T06:49:26.451Z,76.14
2018-10-02T06:50:27.062Z,76.04
2018-10-02T06:51:26.859Z,75.95
2018-10-02T06:52:47.915Z,75.85
2018-10-02T06:53:48.986Z,75.76
2018-10-02T06:54:48.568Z,75.67
2018-10-02T06:55:48.132Z,75.57
2018-10-02T06:56:48.599Z,75.47
2018-10-02T06:57:48.230Z,75.47
2018-10-02T06:58:47.675Z,75.42
2018-10-02T06:59:48.334Z,75.32
2018-10-02T07:00:47.719Z,75.23
2018-10-02T07:01:48.602Z,75.13
2018-10-02T07:02:48.150Z,75.04
2018-10-02T07:04:10.048Z,74.75
2018-10-02T07:05:31.873Z,74.66
2018-10-02T07:06:32.349Z,74.56
2018-10-02T07:07:31.962Z,74.56
2018-10-02T07:08:53.931Z,74.47
2018-10-02T07:09:54.542Z,74.37
2018-10-02T07:10:54.030Z,74.37
2018-10-02T07:11:54.759Z,74.27
2018-10-02T07:12:54.476Z,74.18
2018-10-02T07:13:54.091Z,74.18
2018-10-02T07:14:54.783Z,74.08
2018-10-02T07:15:54.380Z,74.08
2018-10-02T07:16:54.904Z,73.99
2018-10-02T07:17:54.628Z,73.90
2018-10-02T07:18:54.276Z,73.90
2018-10-02T07:20:16.071Z,73.80
2018-10-02T07:21:16.666Z,73.71
2018-10-02T07:22:16.166Z,73.71
2018-10-02T07:23:37.729Z,73.61
2018-10-02T07:24:39.232Z,73.52
2018-10-02T07:25:38.673Z,73.52
2018-10-02T07:26:38.484Z,73.42
2018-10-02T07:27:38.104Z,73.42
2018-10-02T07:28:37.973Z,73.33
2018-10-02T07:29:38.634Z,73.23
2018-10-02T07:30:38.002Z,73.23
2018-10-02T07:31:38.745Z,73.14
2018-10-02T07:32:38.248Z,73.14
2018-10-02T07:33:59.041Z,73.04
2018-10-02T07:34:59.729Z,72.95
2018-10-02T07:35:59.377Z,72.95
2018-10-02T07:36:59.363Z,72.85
2018-10-02T07:38:21.324Z,72.75
2018-10-02T07:39:22.013Z,72.75
2018-10-02T07:40:22.561Z,72.75
2018-10-02T07:41:22.061Z,72.66
2018-10-02T07:42:21.767Z,72.56
2018-10-02T07:43:21.408Z,72.56
2018-10-02T07:44:44.289Z,72.47
2018-10-02T07:46:05.233Z,72.38
2018-10-02T07:47:05.878Z,72.38
2018-10-02T07:48:05.595Z,72.38
2018-10-02T07:49:05.685Z,72.38
2018-10-02T07:50:26.877Z,72.28
2018-10-02T07:51:27.596Z,72.28
2018-10-02T07:52:27.105Z,72.28
2018-10-02T07:53:47.824Z,72.19
2018-10-02T07:55:31.059Z,72.09
2018-10-02T07:56:31.779Z,72.09
2018-10-02T07:57:31.133Z,72.00
2018-10-02T07:58:31.948Z,72.00
2018-10-02T07:59:32.182Z,72.00
2018-10-02T08:00:31.541Z,72.00
2018-10-02T08:01:30.988Z,71.90
2018-10-02T08:02:31.729Z,71.90
2018-10-02T08:03:31.461Z,71.90
2018-10-02T08:04:31.173Z,71.90
2018-10-02T08:05:31.774Z,71.81
2018-10-02T08:06:31.351Z,71.81
2018-10-02T08:07:32.564Z,71.81
2018-10-02T08:08:31.078Z,71.81
2018-10-02T08:09:31.815Z,71.81
2018-10-02T08:10:53.152Z,71.71
2018-10-02T08:11:53.587Z,71.71
2018-10-02T08:13:14.642Z,71.71
2018-10-02T08:14:15.136Z,71.71
2018-10-02T08:15:14.816Z,71.71
2018-10-02T08:16:15.440Z,71.62
2018-10-02T08:17:15.222Z,71.62
2018-10-02T08:18:14.666Z,71.62
2018-10-02T08:19:15.451Z,71.62
2018-10-02T08:20:15.240Z,71.62
2018-10-02T08:21:14.906Z,71.52
2018-10-02T08:22:15.580Z,71.52
2018-10-02T08:23:15.397Z,71.52
2018-10-02T08:24:36.443Z,71.43
2018-10-02T08:25:36.984Z,71.43
2018-10-02T08:26:36.534Z,71.43
2018-10-02T08:27:37.250Z,71.33
2018-10-02T08:28:36.659Z,71.33
2018-10-02T08:29:37.170Z,71.33
2018-10-02T08:30:58.610Z,71.33
2018-10-02T08:31:59.604Z,71.23
2018-10-02T08:32:59.676Z,71.23
2018-10-02T08:33:59.705Z,71.23
2018-10-02T08:34:59.177Z,71.23
2018-10-02T08:35:58.995Z,71.14
2018-10-02T08:36:59.690Z,71.14
2018-10-02T08:37:59.232Z,71.14
2018-10-02T08:38:59.102Z,71.14
2018-10-02T08:40:01.322Z,71.14
2018-10-02T08:40:59.687Z,71.14
2018-10-02T08:41:59.311Z,71.14
2018-10-02T08:42:59.130Z,71.14
2018-10-02T08:43:59.579Z,71.04
2018-10-02T08:45:00.300Z,71.04
2018-10-02T08:46:23.036Z,71.04
2018-10-02T08:47:23.844Z,71.04
2018-10-02T08:48:23.690Z,71.04
2018-10-02T08:49:23.952Z,70.95
2018-10-02T08:50:24.805Z,70.95
2018-10-02T08:51:23.552Z,70.95
2018-10-02T08:52:23.146Z,70.95
2018-10-02T08:53:23.675Z,70.95
2018-10-02T08:54:44.643Z,70.86
2018-10-02T08:55:45.937Z,70.76
2018-10-02T08:57:06.869Z,70.76
2018-10-02T08:58:07.446Z,70.67
2018-10-02T08:59:07.054Z,70.67
2018-10-02T09:00:07.567Z,70.67
2018-10-02T09:01:07.277Z,70.61
2018-10-02T09:02:08.061Z,70.51
2018-10-02T09:03:07.740Z,70.51
2018-10-02T09:04:29.191Z,70.42
2018-10-02T09:05:28.871Z,70.42
2018-10-02T09:06:29.748Z,70.42
2018-10-02T09:08:11.991Z,70.32
2018-10-02T09:09:12.614Z,70.32
2018-10-02T09:10:12.000Z,70.32
2018-10-02T09:11:12.615Z,70.23
2018-10-02T09:12:12.221Z,70.23
2018-10-02T09:13:12.793Z,70.23
2018-10-02T09:14:12.170Z,70.23
2018-10-02T09:15:13.025Z,70.13
2018-10-02T09:16:12.762Z,70.13
2018-10-02T09:17:12.392Z,70.13
2018-10-02T09:18:12.096Z,70.13
2018-10-02T09:19:12.705Z,70.04
2018-10-02T09:20:12.327Z,70.04
2018-10-02T09:21:12.112Z,70.04
2018-10-02T09:22:12.805Z,69.94
2018-10-02T09:23:12.718Z,69.94
2018-10-02T09:24:12.445Z,69.85
2018-10-02T09:25:59.083Z,69.85
2018-10-02T09:26:58.055Z,69.85
2018-10-02T09:27:58.033Z,69.75
2018-10-02T09:28:58.493Z,69.75
2018-10-02T09:29:56.996Z,69.75
2018-10-02T09:30:57.669Z,69.66
2018-10-02T09:31:58.358Z,69.66
2018-10-02T09:32:56.991Z,69.56
2018-10-02T09:33:57.505Z,69.56
2018-10-02T09:34:57.038Z,69.56
2018-10-02T09:35:57.983Z,69.46
2018-10-02T09:36:57.741Z,69.46
2018-10-02T09:37:57.250Z,69.46
2018-10-02T09:38:56.918Z,69.46
2018-10-02T09:40:18.995Z,69.37
2018-10-02T09:41:41.156Z,69.37
2018-10-02T09:42:41.838Z,69.37
2018-10-02T09:43:41.600Z,69.37
2018-10-02T09:44:41.446Z,69.27
2018-10-02T09:45:42.324Z,69.27
2018-10-02T09:46:42.140Z,69.18
2018-10-02T09:47:41.879Z,69.18
2018-10-02T09:48:41.683Z,69.21
2018-10-02T09:49:41.469Z,69.18
2018-10-02T09:50:41.296Z,69.27
2018-10-02T09:52:25.304Z,69.21
2018-10-02T09:53:25.938Z,69.21
2018-10-02T09:54:25.601Z,69.21
2018-10-02T09:55:25.305Z,69.21
2018-10-02T09:56:26.065Z,69.21
2018-10-02T09:57:25.797Z,69.21
2018-10-02T09:58:25.776Z,69.21
2018-10-02T09:59:25.698Z,69.31
2018-10-02T10:00:25.731Z,69.31
2018-10-02T10:01:25.363Z,69.41
2018-10-02T10:02:25.976Z,69.50
2018-10-02T10:03:25.796Z,69.50
2018-10-02T10:04:25.607Z,69.60
2018-10-02T10:05:25.464Z,69.60
2018-10-02T10:06:25.297Z,69.69
2018-10-02T10:07:25.905Z,69.69
2018-10-02T10:08:47.760Z,69.69
2018-10-02T10:09:48.439Z,69.79
2018-10-02T10:10:48.552Z,69.79
2018-10-02T10:11:48.302Z,69.88
2018-10-02T10:12:48.120Z,69.98
2018-10-02T10:13:47.924Z,70.07
2018-10-02T10:15:09.825Z,70.17
2018-10-02T10:16:12.073Z,70.26
2018-10-02T10:17:10.145Z,70.36
2018-10-02T10:18:10.097Z,70.36
2018-10-02T10:19:30.998Z,70.36
2018-10-02T10:20:31.604Z,70.36
2018-10-02T10:21:31.593Z,70.45
2018-10-02T10:22:34.490Z,70.45
2018-10-02T10:23:31.489Z,70.45
2018-10-02T10:24:52.245Z,70.45
2018-10-02T10:25:52.971Z,70.54
2018-10-02T10:26:52.635Z,70.64
2018-10-02T10:27:52.309Z,70.64
2018-10-02T10:28:52.868Z,70.64
2018-10-02T10:29:52.489Z,70.74
2018-10-02T10:30:53.480Z,70.83
2018-10-02T10:31:53.148Z,70.93
2018-10-02T10:32:52.570Z,71.22
2018-10-02T10:33:52.572Z,71.41
2018-10-02T10:34:53.384Z,71.41
2018-10-02T10:35:53.360Z,71.41
2018-10-02T10:36:52.893Z,71.50
2018-10-02T10:37:52.501Z,71.69
2018-10-02T10:38:53.001Z,71.88
2018-10-02T10:40:13.913Z,71.97
2018-10-02T10:41:14.523Z,72.16
2018-10-02T10:42:14.644Z,72.45
2018-10-02T10:43:14.546Z,72.55
2018-10-02T10:44:15.125Z,72.64
2018-10-02T10:45:15.023Z,72.77
2018-10-02T10:46:14.465Z,72.67
2018-10-02T10:47:13.791Z,72.77
2018-10-02T10:48:14.250Z,72.77
2018-10-02T10:49:14.878Z,72.77
2018-10-02T10:50:14.350Z,73.15
2018-10-02T10:51:13.981Z,73.25
2018-10-02T10:52:14.775Z,73.25
2018-10-02T10:53:56.809Z,73.25
2018-10-02T10:54:57.475Z,73.34
2018-10-02T10:55:57.474Z,73.44
2018-10-02T10:56:57.041Z,73.63
2018-10-02T10:57:57.622Z,73.82
2018-10-02T10:58:57.544Z,74.10
2018-10-02T10:59:57.262Z,74.10
2018-10-02T11:00:57.776Z,74.10
2018-10-02T11:01:57.497Z,74.10
2018-10-02T11:03:17.887Z,74.58
2018-10-02T11:04:20.471Z,75.24
2018-10-02T11:05:18.361Z,75.05
2018-10-02T11:06:18.829Z,74.87
2018-10-02T11:07:18.554Z,74.87
2018-10-02T11:08:18.559Z,75.15
2018-10-02T11:09:18.353Z,75.72
2018-10-02T11:10:18.219Z,75.72
2018-10-02T11:11:19.889Z,75.53
2018-10-02T11:12:40.533Z,75.81
2018-10-02T11:13:40.999Z,75.91
2018-10-02T11:15:02.060Z,76.76
2018-10-02T11:16:02.897Z,76.86
2018-10-02T11:17:02.899Z,76.67
2018-10-02T11:18:02.632Z,76.76
2018-10-02T11:19:46.900Z,76.96
2018-10-02T11:20:47.642Z,76.96
2018-10-02T11:21:47.434Z,77.05
2018-10-02T11:22:47.723Z,76.86
2018-10-02T11:23:47.439Z,76.57
2018-10-02T11:24:47.271Z,76.39
2018-10-02T11:25:48.188Z,76.67
2018-10-02T11:27:08.666Z,76.57
2018-10-02T11:28:09.405Z,76.67
2018-10-02T11:29:09.305Z,76.86
2018-10-02T11:30:09.084Z,77.05
2018-10-02T11:31:09.322Z,77.24
2018-10-02T11:32:08.950Z,77.24
2018-10-02T11:33:08.602Z,77.34
2018-10-02T11:34:09.339Z,77.43
2018-10-02T11:35:08.870Z,77.43
2018-10-02T11:36:08.546Z,77.53
2018-10-02T11:37:09.179Z,77.43
2018-10-02T11:38:09.403Z,77.28
2018-10-02T11:39:09.327Z,77.00
2018-10-02T11:40:09.116Z,76.81
2018-10-02T11:41:08.796Z,77.00
2018-10-02T11:42:30.015Z,78.33
2018-10-02T11:43:54.056Z,78.10
2018-10-02T11:45:16.406Z,78.10
2018-10-02T11:46:17.048Z,77.91
2018-10-02T11:47:16.655Z,77.62
2018-10-02T11:48:16.277Z,77.56
2018-10-02T11:49:17.014Z,77.19
2018-10-02T11:50:16.751Z,77.00
2018-10-02T11:51:16.461Z,76.90
2018-10-02T11:52:38.393Z,76.90
2018-10-02T11:53:38.978Z,76.81
2018-10-02T11:54:38.341Z,76.61
2018-10-02T11:56:00.374Z,76.61
2018-10-02T11:57:01.030Z,76.33
2018-10-02T11:58:00.561Z,76.14
2018-10-02T11:59:01.286Z,76.14
2018-10-02T12:00:00.984Z,76.23
2018-10-02T12:01:00.660Z,76.23
2018-10-02T12:02:01.241Z,76.14
2018-10-02T12:03:22.390Z,76.04
2018-10-02T12:04:22.103Z,75.95
2018-10-02T12:05:22.867Z,75.76
2018-10-02T12:06:22.537Z,75.76
2018-10-02T12:07:22.388Z,75.76
2018-10-02T12:08:23.020Z,75.67
2018-10-02T12:09:22.705Z,75.38
2018-10-02T12:10:28.371Z,75.19
2018-10-02T12:11:22.742Z,75.09
2018-10-02T12:12:22.345Z,74.90
2018-10-02T12:13:22.103Z,74.80
2018-10-02T12:14:23.023Z,74.80
2018-10-02T12:15:23.133Z,74.71
2018-10-02T12:16:22.805Z,74.80
2018-10-02T12:17:23.325Z,74.80
2018-10-02T12:18:22.996Z,74.71
2018-10-02T12:19:44.225Z,74.62
2018-10-02T12:20:44.854Z,74.52
2018-10-02T12:21:44.436Z,74.43
2018-10-02T12:23:05.074Z,74.14
2018-10-02T12:24:26.974Z,74.24
2018-10-02T12:25:27.568Z,74.37
2018-10-02T12:26:26.963Z,74.27
2018-10-02T12:27:27.806Z,74.27
2018-10-02T12:28:27.398Z,74.27
2018-10-02T12:29:27.066Z,74.27
2018-10-02T12:30:27.907Z,74.37
2018-10-02T12:31:49.157Z,74.37
2018-10-02T12:32:49.697Z,74.75
2018-10-02T12:33:49.401Z,74.84
2018-10-02T12:34:50.150Z,74.94
2018-10-02T12:35:49.914Z,74.94
2018-10-02T12:36:49.617Z,75.42
2018-10-02T12:37:50.229Z,75.99
2018-10-02T12:38:50.072Z,75.89
2018-10-02T12:39:49.721Z,75.99
2018-10-02T12:40:49.333Z,75.99
2018-10-02T12:41:49.860Z,76.27
2018-10-02T12:42:49.430Z,76.18
2018-10-02T12:43:49.163Z,75.89
2018-10-02T12:44:49.908Z,75.70
2018-10-02T12:45:49.727Z,75.51
2018-10-02T12:46:49.506Z,75.79
2018-10-02T12:47:49.077Z,75.79
2018-10-02T12:48:49.843Z,75.79
2018-10-02T12:49:49.559Z,75.99
2018-10-02T12:50:49.163Z,75.99
2018-10-02T12:51:49.781Z,76.08
2018-10-02T12:52:49.828Z,75.89
2018-10-02T12:53:49.801Z,75.79
2018-10-02T12:54:49.620Z,75.60
2018-10-02T12:55:49.279Z,75.42
2018-10-02T12:56:49.797Z,75.42
2018-10-02T12:57:49.470Z,75.42
2018-10-02T12:58:49.050Z,75.23
2018-10-02T12:59:49.623Z,74.94
2018-10-02T13:00:49.028Z,74.84
2018-10-02T13:01:49.833Z,74.65
2018-10-02T13:02:49.733Z,74.37
2018-10-02T13:03:49.588Z,74.18
2018-10-02T13:04:49.470Z,74.18
2018-10-02T13:05:50.106Z,74.18
2018-10-02T13:06:49.761Z,74.08
2018-10-02T13:07:49.299Z,73.93
2018-10-02T13:08:49.863Z,73.74
2018-10-02T13:09:49.431Z,73.74
2018-10-02T13:10:50.093Z,73.74
2018-10-02T13:11:49.559Z,73.65
2018-10-02T13:12:49.483Z,73.55
2018-10-02T13:13:49.120Z,73.65
2018-10-02T13:14:49.783Z,73.74
2018-10-02T13:15:49.307Z,73.74
2018-10-02T13:16:50.171Z,73.55
2018-10-02T13:17:49.886Z,73.55
2018-10-02T13:19:10.961Z,73.65
2018-10-02T13:20:38.806Z,73.74
2018-10-02T13:22:01.177Z,73.65
2018-10-02T13:23:01.680Z,73.55
2018-10-02T13:24:01.534Z,73.36
2018-10-02T13:25:22.366Z,73.36
2018-10-02T13:26:44.542Z,73.36
2018-10-02T13:27:45.133Z,73.26
2018-10-02T13:28:44.781Z,73.17
2018-10-02T13:29:44.484Z,73.17
2018-10-02T13:30:44.830Z,72.97
2018-10-02T13:31:44.394Z,72.97
2018-10-02T13:32:45.123Z,72.78
2018-10-02T13:33:44.588Z,72.78
2018-10-02T13:34:45.389Z,72.78
2018-10-02T13:35:47.744Z,72.60
2018-10-02T13:36:44.273Z,72.41
2018-10-02T13:37:44.814Z,72.25